createdAt,value
2022-09-15T00:02:10.410Z,13.54
2022-09-15T00:07:13.847Z,13.55
2022-09-15T00:12:17.315Z,13.56
2022-09-15T00:17:45.805Z,13.60
2022-09-15T00:23:00.123Z,13.63
2022-09-15T00:28:32.648Z,13.59
2022-09-15T00:33:49.857Z,13.62
2022-09-15T00:38:53.712Z,13.71
2022-09-15T00:44:08.864Z,13.67
2022-09-15T00:49:31.721Z,13.58
2022-09-15T00:55:25.815Z,13.58
2022-09-15T01:00:32.308Z,13.56
2022-09-15T01:05:43.943Z,13.56
2022-09-15T01:10:47.387Z,13.65
2022-09-15T01:21:58.754Z,13.73
2022-09-15T01:27:37.729Z,13.68
2022-09-15T01:33:24.606Z,13.61
2022-09-15T01:39:06.475Z,13.60
2022-09-15T01:44:26.935Z,13.63
2022-09-15T01:50:49.896Z,13.69
2022-09-15T01:56:01.272Z,13.76
2022-09-15T02:01:40.754Z,13.80
2022-09-15T02:06:52.324Z,13.83
2022-09-15T02:12:41.961Z,13.77
2022-09-15T02:17:54.353Z,13.73
2022-09-15T02:23:16.311Z,13.74
2022-09-15T02:28:45.600Z,13.79
2022-09-15T02:34:19.608Z,13.81
2022-09-15T02:39:38.172Z,13.84
2022-09-15T02:44:50.054Z,13.86
2022-09-15T02:50:02.409Z,13.87
2022-09-15T02:55:29.192Z,13.83
2022-09-15T03:00:32.649Z,13.81
2022-09-15T03:05:43.690Z,13.78
2022-09-15T03:10:49.451Z,13.76
2022-09-15T03:16:01.187Z,13.74
2022-09-15T03:21:08.584Z,13.73
2022-09-15T03:26:21.072Z,13.74
2022-09-15T03:31:24.532Z,13.72
2022-09-15T03:36:28.011Z,13.71
2022-09-15T03:41:37.514Z,13.71
2022-09-15T03:46:40.853Z,13.71
2022-09-15T03:51:53.685Z,13.73
2022-09-15T03:57:02.670Z,13.73
2022-09-15T04:02:06.183Z,13.69
2022-09-15T04:07:09.568Z,13.63
2022-09-15T04:12:15.859Z,13.52
2022-09-15T04:17:23.150Z,13.32
2022-09-15T04:22:45.206Z,13.09
2022-09-15T04:27:50.975Z,12.88
2022-09-15T04:32:57.145Z,12.75
2022-09-15T04:38:25.092Z,12.65
2022-09-15T04:43:33.689Z,12.60
2022-09-15T04:48:48.208Z,12.60
2022-09-15T04:53:52.300Z,12.64
2022-09-15T04:59:13.684Z,12.76
2022-09-15T05:04:17.204Z,12.97
2022-09-15T05:09:34.658Z,13.15
2022-09-15T05:14:38.186Z,13.33
2022-09-15T05:19:41.825Z,13.44
2022-09-15T05:24:45.108Z,13.55
2022-09-15T05:29:48.491Z,13.66
2022-09-15T05:35:09.115Z,13.74
2022-09-15T05:40:24.862Z,13.84
2022-09-15T05:45:36.226Z,13.86
2022-09-15T05:50:49.785Z,13.84
2022-09-15T05:56:03.580Z,13.98
2022-09-15T06:01:42.430Z,14.64
2022-09-15T06:06:45.807Z,15.37
2022-09-15T06:11:49.646Z,16.07
2022-09-15T06:16:55.875Z,16.75
2022-09-15T06:22:13.702Z,17.38
2022-09-15T06:27:19.271Z,17.88
2022-09-15T06:32:22.385Z,18.11
2022-09-15T06:37:36.324Z,18.36
2022-09-15T06:42:39.906Z,18.70
2022-09-15T06:47:43.390Z,19.18
2022-09-15T06:52:46.576Z,19.23
2022-09-15T06:57:50.890Z,18.91
2022-09-15T07:03:03.573Z,18.27
2022-09-15T07:08:09.647Z,18.00
2022-09-15T07:13:16.251Z,18.00
2022-09-15T07:18:19.988Z,18.30
2022-09-15T07:23:28.372Z,18.68
2022-09-15T07:28:34.702Z,19.01
2022-09-15T07:33:38.456Z,19.40
2022-09-15T07:38:49.481Z,19.56
2022-09-15T07:44:00.572Z,19.65
2022-09-15T07:49:06.636Z,19.80
2022-09-15T07:54:09.914Z,19.75
2022-09-15T07:59:13.093Z,19.74
2022-09-15T08:04:19.585Z,19.78
2022-09-15T08:09:25.662Z,19.75
2022-09-15T08:14:31.885Z,19.93
2022-09-15T08:19:36.080Z,20.24
2022-09-15T08:24:45.088Z,20.61
2022-09-15T08:29:49.015Z,20.89
2022-09-15T08:34:57.747Z,20.51
2022-09-15T08:40:00.877Z,20.34
2022-09-15T08:45:22.132Z,20.22
2022-09-15T08:50:35.038Z,20.15
2022-09-15T08:56:10.188Z,20.09
2022-09-15T09:01:49.870Z,19.84
2022-09-15T09:07:01.896Z,20.44
2022-09-15T09:12:49.678Z,20.85
2022-09-15T09:18:07.580Z,20.73
2022-09-15T09:23:20.713Z,20.68
2022-09-15T09:28:40.035Z,20.82
2022-09-15T09:33:58.569Z,20.79
2022-09-15T09:39:05.725Z,20.70
2022-09-15T09:44:15.538Z,20.48
2022-09-15T09:49:24.971Z,19.77
2022-09-15T09:54:35.842Z,19.31
2022-09-15T09:59:40.789Z,19.23
2022-09-15T10:05:10.816Z,19.02
2022-09-15T10:10:32.453Z,18.69
2022-09-15T10:15:41.187Z,18.68
2022-09-15T10:20:55.793Z,18.91
2022-09-15T10:26:34.590Z,19.07
2022-09-15T10:31:47.867Z,18.74
2022-09-15T10:37:31.780Z,18.58
2022-09-15T10:43:47.184Z,18.38
2022-09-15T10:49:05.973Z,18.13
2022-09-15T10:54:49.939Z,18.10
2022-09-15T11:00:22.535Z,18.35
2022-09-15T11:05:58.589Z,18.73
2022-09-15T11:11:23.729Z,19.13
2022-09-15T11:17:17.527Z,19.25
2022-09-15T11:23:05.670Z,19.43
2022-09-15T11:28:51.477Z,19.41
2022-09-15T11:34:25.443Z,19.53
2022-09-15T11:39:47.545Z,19.35
2022-09-15T11:44:53.766Z,19.09
2022-09-15T11:50:24.406Z,19.10
2022-09-15T11:55:32.343Z,19.26
2022-09-15T12:00:48.483Z,19.47
2022-09-15T12:06:00.690Z,19.84
2022-09-15T12:11:19.951Z,19.94
2022-09-15T12:16:25.610Z,19.87
2022-09-15T12:21:50.252Z,19.95
2022-09-15T12:27:10.286Z,19.63
2022-09-15T12:32:25.261Z,19.60
2022-09-15T12:37:44.900Z,19.65
2022-09-15T12:42:48.239Z,19.88
2022-09-15T12:48:01.451Z,20.43
2022-09-15T12:53:21.729Z,20.90
2022-09-15T12:58:40.089Z,20.97
2022-09-15T13:03:43.203Z,20.79
2022-09-15T13:09:01.866Z,20.61
2022-09-15T13:14:07.664Z,20.26
2022-09-15T13:19:22.597Z,20.15
2022-09-15T13:24:42.388Z,20.18
2022-09-15T13:30:29.863Z,20.64
2022-09-15T13:36:04.244Z,20.67
2022-09-15T13:41:33.315Z,20.46
2022-09-15T13:47:01.057Z,20.59
2022-09-15T13:52:25.066Z,20.50
2022-09-15T14:03:01.724Z,20.23
2022-09-15T14:08:41.897Z,20.00
2022-09-15T14:13:53.928Z,19.48
2022-09-15T14:19:41.575Z,19.01
2022-09-15T14:25:11.157Z,17.39
2022-09-15T14:30:48.859Z,16.95
2022-09-15T14:35:51.914Z,16.64
2022-09-15T14:40:59.434Z,16.46
2022-09-15T14:46:14.871Z,16.32
2022-09-15T14:51:25.220Z,16.19
2022-09-15T14:56:36.601Z,15.99
2022-09-15T15:01:57.377Z,16.14
2022-09-15T15:07:09.861Z,16.21
2022-09-15T15:12:37.127Z,16.21
2022-09-15T15:17:55.086Z,16.10
2022-09-15T15:23:25.496Z,15.83
2022-09-15T15:28:36.587Z,15.73
2022-09-15T15:33:53.263Z,15.73
2022-09-15T15:39:04.936Z,15.78
2022-09-15T15:44:14.108Z,15.84
2022-09-15T15:49:20.903Z,15.80
2022-09-15T15:54:25.841Z,15.65
2022-09-15T15:59:28.895Z,15.57
2022-09-15T16:04:37.800Z,15.51
2022-09-15T16:10:02.325Z,15.48
2022-09-15T16:15:21.048Z,15.41
2022-09-15T16:20:28.251Z,15.30
2022-09-15T16:25:52.515Z,15.27
2022-09-15T16:31:10.190Z,15.23
2022-09-15T16:36:39.234Z,15.21
2022-09-15T16:41:42.552Z,15.20
2022-09-15T16:46:53.990Z,15.21
2022-09-15T16:51:57.318Z,15.16
2022-09-15T16:57:19.684Z,15.09
2022-09-15T17:02:27.637Z,14.89
2022-09-15T17:07:39.619Z,14.71
2022-09-15T17:12:43.227Z,14.59
2022-09-15T17:18:15.726Z,14.56
2022-09-15T17:23:27.582Z,14.53
2022-09-15T17:28:38.924Z,14.47
2022-09-15T17:33:43.294Z,14.34
2022-09-15T17:39:06.867Z,14.19
2022-09-15T17:44:16.098Z,14.03
2022-09-15T17:49:30.975Z,13.89
2022-09-15T17:54:34.294Z,13.76
2022-09-15T17:59:40.534Z,13.62
2022-09-15T18:04:46.259Z,13.50
2022-09-15T18:10:00.994Z,13.39
2022-09-15T18:15:10.441Z,13.27
2022-09-15T18:20:20.039Z,13.18
2022-09-15T18:25:27.461Z,13.10
2022-09-15T18:30:42.422Z,13.01
2022-09-15T18:35:48.019Z,12.90
2022-09-15T18:40:55.483Z,12.79
2022-09-15T18:46:01.367Z,12.71
2022-09-15T18:51:50.625Z,12.62
2022-09-15T18:57:09.380Z,12.53
2022-09-15T19:02:17.949Z,12.45
2022-09-15T19:07:24.078Z,12.37
2022-09-15T19:12:32.857Z,12.29
2022-09-15T19:17:43.074Z,12.22
2022-09-15T19:22:51.534Z,12.19
2022-09-15T19:27:57.253Z,12.17
2022-09-15T19:33:02.552Z,12.12
2022-09-15T19:38:06.006Z,12.07
2022-09-15T19:43:12.268Z,12.02
2022-09-15T19:48:45.666Z,11.98
2022-09-15T19:53:56.642Z,11.93
2022-09-15T19:59:05.814Z,11.88
2022-09-15T20:09:36.374Z,11.75
2022-09-15T20:14:42.904Z,11.68
2022-09-15T20:19:48.674Z,11.67
2022-09-15T20:24:52.091Z,11.64
2022-09-15T20:29:57.480Z,11.59
2022-09-15T20:35:17.263Z,11.54
2022-09-15T20:40:46.079Z,11.46
2022-09-15T20:46:05.216Z,11.41
2022-09-15T20:51:28.277Z,11.38
2022-09-15T20:56:46.710Z,11.35
2022-09-15T21:02:06.187Z,11.32
2022-09-15T21:07:15.457Z,11.30
2022-09-15T21:12:25.069Z,11.29
2022-09-15T21:17:29.239Z,11.27
2022-09-15T21:22:42.486Z,11.21
2022-09-15T21:27:47.004Z,11.17
2022-09-15T21:32:59.515Z,11.15
2022-09-15T21:38:03.076Z,11.11
2022-09-15T21:43:10.669Z,11.09
2022-09-15T21:48:14.516Z,11.05
2022-09-15T21:53:21.119Z,11.00
2022-09-15T21:58:42.179Z,10.93
2022-09-15T22:04:07.352Z,10.88
2022-09-15T22:09:48.573Z,10.82
2022-09-15T22:14:52.309Z,10.75
2022-09-15T22:19:55.700Z,10.73
2022-09-15T22:24:59.259Z,10.74
2022-09-15T22:30:02.863Z,10.78
2022-09-15T22:35:35.154Z,10.85
2022-09-15T22:41:05.161Z,10.92
2022-09-15T22:46:31.060Z,11.03
2022-09-15T22:51:50.075Z,11.16
2022-09-15T22:56:53.445Z,11.30
2022-09-15T23:01:56.792Z,11.43
2022-09-15T23:07:12.730Z,11.47
2022-09-15T23:12:19.416Z,11.47
2022-09-15T23:17:27.554Z,11.41
2022-09-15T23:22:39.975Z,11.32
2022-09-15T23:27:46.654Z,11.18
2022-09-15T23:32:55.414Z,11.08
2022-09-15T23:38:02.163Z,10.97
2022-09-15T23:43:33.304Z,10.89
2022-09-15T23:48:39.845Z,10.82
2022-09-15T23:54:59.471Z,10.80
